sensor_id;sensor_type;location;lat;lon;timestamp;temperature;humidity
16532;DHT22;66872;63.142;14.482;2023-07-13T00:00:13;20.80;47.70
16532;DHT22;66872;63.142;14.482;2023-07-13T00:02:42;20.80;47.60
16532;DHT22;66872;63.142;14.482;2023-07-13T00:05:08;20.80;47.70
16532;DHT22;66872;63.142;14.482;2023-07-13T00:07:35;20.80;47.70
16532;DHT22;66872;63.142;14.482;2023-07-13T00:10:02;20.80;47.70
16532;DHT22;66872;63.142;14.482;2023-07-13T00:12:33;20.80;47.70
16532;DHT22;66872;63.142;14.482;2023-07-13T00:15:01;20.80;47.80
16532;DHT22;66872;63.142;14.482;2023-07-13T00:17:27;20.80;47.80
16532;DHT22;66872;63.142;14.482;2023-07-13T00:19:54;20.80;47.80
16532;DHT22;66872;63.142;14.482;2023-07-13T00:22:21;20.80;47.80
16532;DHT22;66872;63.142;14.482;2023-07-13T00:24:47;20.80;47.80
16532;DHT22;66872;63.142;14.482;2023-07-13T00:27:13;20.80;47.80
16532;DHT22;66872;63.142;14.482;2023-07-13T00:29:39;20.80;47.80
16532;DHT22;66872;63.142;14.482;2023-07-13T00:32:06;20.80;47.90
16532;DHT22;66872;63.142;14.482;2023-07-13T00:34:32;20.80;47.90
16532;DHT22;66872;63.142;14.482;2023-07-13T00:36:58;20.80;47.90
16532;DHT22;66872;63.142;14.482;2023-07-13T00:39:24;20.70;47.90
16532;DHT22;66872;63.142;14.482;2023-07-13T00:41:50;20.80;47.90
16532;DHT22;66872;63.142;14.482;2023-07-13T00:44:18;20.80;48.00
16532;DHT22;66872;63.142;14.482;2023-07-13T00:46:44;20.80;48.00
16532;DHT22;66872;63.142;14.482;2023-07-13T00:49:13;20.80;48.00
16532;DHT22;66872;63.142;14.482;2023-07-13T00:51:48;20.70;47.90
16532;DHT22;66872;63.142;14.482;2023-07-13T00:54:19;20.70;47.90
16532;DHT22;66872;63.142;14.482;2023-07-13T00:56:49;20.70;47.90
16532;DHT22;66872;63.142;14.482;2023-07-13T00:59:18;20.70;48.00
16532;DHT22;66872;63.142;14.482;2023-07-13T01:01:45;20.70;48.00
16532;DHT22;66872;63.142;14.482;2023-07-13T01:04:11;20.70;48.00
16532;DHT22;66872;63.142;14.482;2023-07-13T01:06:37;20.70;48.00
16532;DHT22;66872;63.142;14.482;2023-07-13T01:09:05;20.70;48.00
16532;DHT22;66872;63.142;14.482;2023-07-13T01:11:31;20.70;48.10
16532;DHT22;66872;63.142;14.482;2023-07-13T01:13:57;20.70;48.00
16532;DHT22;66872;63.142;14.482;2023-07-13T01:16:29;20.70;48.00
16532;DHT22;66872;63.142;14.482;2023-07-13T01:18:56;20.70;48.00
16532;DHT22;66872;63.142;14.482;2023-07-13T01:21:24;20.70;48.00
16532;DHT22;66872;63.142;14.482;2023-07-13T01:23:50;20.70;47.90
16532;DHT22;66872;63.142;14.482;2023-07-13T01:26:16;20.70;48.00
16532;DHT22;66872;63.142;14.482;2023-07-13T01:28:42;20.70;48.00
16532;DHT22;66872;63.142;14.482;2023-07-13T01:31:08;20.70;48.00
16532;DHT22;66872;63.142;14.482;2023-07-13T01:33:36;20.70;47.90
16532;DHT22;66872;63.142;14.482;2023-07-13T01:36:01;20.70;48.00
16532;DHT22;66872;63.142;14.482;2023-07-13T01:38:27;20.70;48.00
16532;DHT22;66872;63.142;14.482;2023-07-13T01:40:53;20.70;48.00
16532;DHT22;66872;63.142;14.482;2023-07-13T01:43:19;20.70;48.00
16532;DHT22;66872;63.142;14.482;2023-07-13T01:45:45;20.60;47.90
16532;DHT22;66872;63.142;14.482;2023-07-13T01:48:12;20.70;48.00
16532;DHT22;66872;63.142;14.482;2023-07-13T01:50:38;20.60;47.90
16532;DHT22;66872;63.142;14.482;2023-07-13T01:53:04;20.70;48.00
16532;DHT22;66872;63.142;14.482;2023-07-13T01:55:31;20.60;47.90
16532;DHT22;66872;63.142;14.482;2023-07-13T01:57:57;20.60;47.90
16532;DHT22;66872;63.142;14.482;2023-07-13T02:00:23;20.60;47.90
16532;DHT22;66872;63.142;14.482;2023-07-13T02:02:50;20.60;47.90
16532;DHT22;66872;63.142;14.482;2023-07-13T02:05:16;20.60;47.90
16532;DHT22;66872;63.142;14.482;2023-07-13T02:07:41;20.60;47.90
16532;DHT22;66872;63.142;14.482;2023-07-13T02:10:08;20.60;47.80
16532;DHT22;66872;63.142;14.482;2023-07-13T02:12:35;20.60;47.90
16532;DHT22;66872;63.142;14.482;2023-07-13T02:15:01;20.60;47.90
16532;DHT22;66872;63.142;14.482;2023-07-13T02:17:27;20.60;47.90
16532;DHT22;66872;63.142;14.482;2023-07-13T02:19:53;20.60;47.90
16532;DHT22;66872;63.142;14.482;2023-07-13T02:22:19;20.60;47.90
16532;DHT22;66872;63.142;14.482;2023-07-13T02:24:44;20.60;47.90
16532;DHT22;66872;63.142;14.482;2023-07-13T02:27:10;20.60;47.90
16532;DHT22;66872;63.142;14.482;2023-07-13T02:29:36;20.60;47.90
16532;DHT22;66872;63.142;14.482;2023-07-13T02:32:01;20.60;47.90
16532;DHT22;66872;63.142;14.482;2023-07-13T02:34:28;20.50;47.80
16532;DHT22;66872;63.142;14.482;2023-07-13T02:36:54;20.60;47.90
16532;DHT22;66872;63.142;14.482;2023-07-13T02:39:19;20.50;47.80
16532;DHT22;66872;63.142;14.482;2023-07-13T02:41:45;20.60;47.90
16532;DHT22;66872;63.142;14.482;2023-07-13T02:44:12;20.60;47.90
16532;DHT22;66872;63.142;14.482;2023-07-13T02:46:39;20.60;47.90
16532;DHT22;66872;63.142;14.482;2023-07-13T02:49:05;20.50;47.80
16532;DHT22;66872;63.142;14.482;2023-07-13T02:51:31;20.50;47.70
16532;DHT22;66872;63.142;14.482;2023-07-13T02:54:02;20.50;47.70
16532;DHT22;66872;63.142;14.482;2023-07-13T02:56:30;20.50;47.70
16532;DHT22;66872;63.142;14.482;2023-07-13T02:58:56;20.50;47.80
16532;DHT22;66872;63.142;14.482;2023-07-13T03:01:22;20.50;47.70
16532;DHT22;66872;63.142;14.482;2023-07-13T03:03:49;20.50;47.70
16532;DHT22;66872;63.142;14.482;2023-07-13T03:06:16;20.50;47.80
16532;DHT22;66872;63.142;14.482;2023-07-13T03:08:42;20.50;47.80
16532;DHT22;66872;63.142;14.482;2023-07-13T03:11:14;20.50;47.80
16532;DHT22;66872;63.142;14.482;2023-07-13T03:13:41;20.50;47.80
16532;DHT22;66872;63.142;14.482;2023-07-13T03:16:07;20.50;47.80
16532;DHT22;66872;63.142;14.482;2023-07-13T03:18:33;20.50;47.80
16532;DHT22;66872;63.142;14.482;2023-07-13T03:20:59;20.50;47.80
16532;DHT22;66872;63.142;14.482;2023-07-13T03:23:25;20.50;47.80
16532;DHT22;66872;63.142;14.482;2023-07-13T03:26:01;20.50;47.80
16532;DHT22;66872;63.142;14.482;2023-07-13T03:28:27;20.50;47.70
16532;DHT22;66872;63.142;14.482;2023-07-13T03:31:09;20.50;47.80
16532;DHT22;66872;63.142;14.482;2023-07-13T03:33:36;20.50;47.80
16532;DHT22;66872;63.142;14.482;2023-07-13T03:36:03;20.50;47.80
16532;DHT22;66872;63.142;14.482;2023-07-13T03:38:29;20.50;47.70
16532;DHT22;66872;63.142;14.482;2023-07-13T03:40:55;20.50;47.70
16532;DHT22;66872;63.142;14.482;2023-07-13T03:43:21;20.50;47.70
16532;DHT22;66872;63.142;14.482;2023-07-13T03:45:47;20.50;47.70
16532;DHT22;66872;63.142;14.482;2023-07-13T03:48:13;20.50;47.70
16532;DHT22;66872;63.142;14.482;2023-07-13T03:50:39;20.50;47.70
16532;DHT22;66872;63.142;14.482;2023-07-13T03:53:05;20.50;47.70
16532;DHT22;66872;63.142;14.482;2023-07-13T03:55:30;20.50;47.70
16532;DHT22;66872;63.142;14.482;2023-07-13T03:58:22;20.50;47.70
16532;DHT22;66872;63.142;14.482;2023-07-13T04:00:46;20.50;47.70
16532;DHT22;66872;63.142;14.482;2023-07-13T04:03:11;20.50;47.70
16532;DHT22;66872;63.142;14.482;2023-07-13T04:05:38;20.50;47.70
16532;DHT22;66872;63.142;14.482;2023-07-13T04:08:06;20.50;47.70
16532;DHT22;66872;63.142;14.482;2023-07-13T04:10:31;20.50;47.70
16532;DHT22;66872;63.142;14.482;2023-07-13T04:12:57;20.50;47.70
16532;DHT22;66872;63.142;14.482;2023-07-13T04:15:23;20.50;47.70
16532;DHT22;66872;63.142;14.482;2023-07-13T04:17:48;20.50;47.70
16532;DHT22;66872;63.142;14.482;2023-07-13T04:20:14;20.50;47.70
16532;DHT22;66872;63.142;14.482;2023-07-13T04:22:40;20.50;47.70
16532;DHT22;66872;63.142;14.482;2023-07-13T04:25:06;20.50;47.70
16532;DHT22;66872;63.142;14.482;2023-07-13T04:27:31;20.50;48.20
16532;DHT22;66872;63.142;14.482;2023-07-13T04:29:57;20.50;47.60
16532;DHT22;66872;63.142;14.482;2023-07-13T04:32:23;20.50;47.60
16532;DHT22;66872;63.142;14.482;2023-07-13T04:34:48;20.50;47.60
16532;DHT22;66872;63.142;14.482;2023-07-13T04:37:17;20.50;47.60
16532;DHT22;66872;63.142;14.482;2023-07-13T04:39:43;20.50;47.60
16532;DHT22;66872;63.142;14.482;2023-07-13T04:42:08;20.50;47.60
16532;DHT22;66872;63.142;14.482;2023-07-13T04:44:34;20.50;47.60
16532;DHT22;66872;63.142;14.482;2023-07-13T04:47:00;20.50;47.60
16532;DHT22;66872;63.142;14.482;2023-07-13T04:49:25;20.50;47.60
16532;DHT22;66872;63.142;14.482;2023-07-13T04:51:51;20.40;47.50
16532;DHT22;66872;63.142;14.482;2023-07-13T04:54:17;20.50;47.60
16532;DHT22;66872;63.142;14.482;2023-07-13T04:56:42;20.50;47.60
16532;DHT22;66872;63.142;14.482;2023-07-13T04:59:08;20.50;47.60
16532;DHT22;66872;63.142;14.482;2023-07-13T05:01:33;20.50;47.60
16532;DHT22;66872;63.142;14.482;2023-07-13T05:03:59;20.50;47.60
16532;DHT22;66872;63.142;14.482;2023-07-13T05:06:25;20.50;47.50
16532;DHT22;66872;63.142;14.482;2023-07-13T05:08:51;20.50;47.50
16532;DHT22;66872;63.142;14.482;2023-07-13T05:11:17;20.40;47.40
16532;DHT22;66872;63.142;14.482;2023-07-13T05:13:43;20.40;47.50
16532;DHT22;66872;63.142;14.482;2023-07-13T05:16:09;20.50;47.50
16532;DHT22;66872;63.142;14.482;2023-07-13T05:18:35;20.50;47.50
16532;DHT22;66872;63.142;14.482;2023-07-13T05:21:04;20.50;47.50
16532;DHT22;66872;63.142;14.482;2023-07-13T05:23:31;20.50;47.50
16532;DHT22;66872;63.142;14.482;2023-07-13T05:25:56;20.50;47.50
16532;DHT22;66872;63.142;14.482;2023-07-13T05:28:22;20.40;47.50
16532;DHT22;66872;63.142;14.482;2023-07-13T05:30:49;20.50;47.50
16532;DHT22;66872;63.142;14.482;2023-07-13T05:33:16;20.40;47.40
16532;DHT22;66872;63.142;14.482;2023-07-13T05:35:41;20.50;47.50
16532;DHT22;66872;63.142;14.482;2023-07-13T05:38:07;20.50;47.50
16532;DHT22;66872;63.142;14.482;2023-07-13T05:40:33;20.50;47.50
16532;DHT22;66872;63.142;14.482;2023-07-13T05:42:58;20.50;47.50
16532;DHT22;66872;63.142;14.482;2023-07-13T05:45:24;20.40;47.40
16532;DHT22;66872;63.142;14.482;2023-07-13T05:47:51;20.50;47.50
16532;DHT22;66872;63.142;14.482;2023-07-13T05:50:17;20.50;47.50
16532;DHT22;66872;63.142;14.482;2023-07-13T05:52:42;20.50;47.50
16532;DHT22;66872;63.142;14.482;2023-07-13T05:55:08;20.50;47.40
16532;DHT22;66872;63.142;14.482;2023-07-13T05:57:34;20.50;47.40
16532;DHT22;66872;63.142;14.482;2023-07-13T06:00:00;20.40;47.40
16532;DHT22;66872;63.142;14.482;2023-07-13T06:02:27;20.50;47.40
16532;DHT22;66872;63.142;14.482;2023-07-13T06:04:53;20.40;47.30
16532;DHT22;66872;63.142;14.482;2023-07-13T06:07:18;20.40;47.40
16532;DHT22;66872;63.142;14.482;2023-07-13T06:09:44;20.50;47.40
16532;DHT22;66872;63.142;14.482;2023-07-13T06:12:10;20.50;47.40
16532;DHT22;66872;63.142;14.482;2023-07-13T06:14:35;20.50;47.40
16532;DHT22;66872;63.142;14.482;2023-07-13T06:17:01;20.50;47.40
16532;DHT22;66872;63.142;14.482;2023-07-13T06:19:27;20.50;47.40
16532;DHT22;66872;63.142;14.482;2023-07-13T06:21:52;20.50;47.40
16532;DHT22;66872;63.142;14.482;2023-07-13T06:24:18;20.50;47.90
16532;DHT22;66872;63.142;14.482;2023-07-13T06:26:44;20.50;47.30
16532;DHT22;66872;63.142;14.482;2023-07-13T06:29:09;20.50;47.20
16532;DHT22;66872;63.142;14.482;2023-07-13T06:31:35;20.50;47.20
16532;DHT22;66872;63.142;14.482;2023-07-13T06:34:00;20.50;47.20
16532;DHT22;66872;63.142;14.482;2023-07-13T06:36:26;20.50;47.10
16532;DHT22;66872;63.142;14.482;2023-07-13T06:38:52;20.50;47.10
16532;DHT22;66872;63.142;14.482;2023-07-13T06:41:17;20.50;47.00
16532;DHT22;66872;63.142;14.482;2023-07-13T06:43:43;20.50;47.00
16532;DHT22;66872;63.142;14.482;2023-07-13T06:46:09;20.50;47.00
16532;DHT22;66872;63.142;14.482;2023-07-13T06:48:35;20.50;47.00
16532;DHT22;66872;63.142;14.482;2023-07-13T06:51:02;20.50;47.00
16532;DHT22;66872;63.142;14.482;2023-07-13T06:53:27;20.50;47.00
16532;DHT22;66872;63.142;14.482;2023-07-13T06:55:53;20.50;47.00
16532;DHT22;66872;63.142;14.482;2023-07-13T06:58:19;20.50;47.00
16532;DHT22;66872;63.142;14.482;2023-07-13T07:00:46;20.50;47.00
16532;DHT22;66872;63.142;14.482;2023-07-13T07:03:12;20.50;47.00
16532;DHT22;66872;63.142;14.482;2023-07-13T07:05:38;20.50;47.00
16532;DHT22;66872;63.142;14.482;2023-07-13T07:08:04;20.50;47.00
16532;DHT22;66872;63.142;14.482;2023-07-13T07:10:30;20.50;47.00
16532;DHT22;66872;63.142;14.482;2023-07-13T07:12:57;20.50;46.90
16532;DHT22;66872;63.142;14.482;2023-07-13T07:15:22;20.50;47.00
16532;DHT22;66872;63.142;14.482;2023-07-13T07:17:48;20.60;47.00
16532;DHT22;66872;63.142;14.482;2023-07-13T07:20:14;20.60;47.00
16532;DHT22;66872;63.142;14.482;2023-07-13T07:22:40;20.60;46.90
16532;DHT22;66872;63.142;14.482;2023-07-13T07:25:05;20.60;46.90
16532;DHT22;66872;63.142;14.482;2023-07-13T07:27:32;20.60;46.90
16532;DHT22;66872;63.142;14.482;2023-07-13T07:29:59;20.60;46.90
16532;DHT22;66872;63.142;14.482;2023-07-13T07:32:24;20.60;46.90
16532;DHT22;66872;63.142;14.482;2023-07-13T07:34:50;20.60;46.90
16532;DHT22;66872;63.142;14.482;2023-07-13T07:37:16;20.60;46.90
16532;DHT22;66872;63.142;14.482;2023-07-13T07:39:43;20.60;46.90
16532;DHT22;66872;63.142;14.482;2023-07-13T07:42:09;20.60;46.90
16532;DHT22;66872;63.142;14.482;2023-07-13T07:44:35;20.50;47.40
16532;DHT22;66872;63.142;14.482;2023-07-13T07:47:01;20.50;46.90
16532;DHT22;66872;63.142;14.482;2023-07-13T07:49:26;20.50;46.90
16532;DHT22;66872;63.142;14.482;2023-07-13T07:51:52;20.50;46.90
16532;DHT22;66872;63.142;14.482;2023-07-13T07:54:18;20.50;47.00
16532;DHT22;66872;63.142;14.482;2023-07-13T07:56:44;20.50;47.00
16532;DHT22;66872;63.142;14.482;2023-07-13T07:59:09;20.50;47.00
16532;DHT22;66872;63.142;14.482;2023-07-13T08:01:36;20.50;47.00
16532;DHT22;66872;63.142;14.482;2023-07-13T08:04:02;20.50;47.00
16532;DHT22;66872;63.142;14.482;2023-07-13T08:06:27;20.50;47.00
16532;DHT22;66872;63.142;14.482;2023-07-13T08:08:54;20.50;47.00
16532;DHT22;66872;63.142;14.482;2023-07-13T08:11:21;20.60;47.00
16532;DHT22;66872;63.142;14.482;2023-07-13T08:13:47;20.60;47.00
16532;DHT22;66872;63.142;14.482;2023-07-13T08:16:12;20.60;46.90
16532;DHT22;66872;63.142;14.482;2023-07-13T08:18:38;20.60;46.90
16532;DHT22;66872;63.142;14.482;2023-07-13T08:21:08;20.60;46.80
16532;DHT22;66872;63.142;14.482;2023-07-13T08:23:35;20.70;46.80
16532;DHT22;66872;63.142;14.482;2023-07-13T08:26:01;20.70;46.80
16532;DHT22;66872;63.142;14.482;2023-07-13T08:28:27;20.70;46.60
16532;DHT22;66872;63.142;14.482;2023-07-13T08:30:53;20.70;46.60
16532;DHT22;66872;63.142;14.482;2023-07-13T08:33:20;20.70;46.60
16532;DHT22;66872;63.142;14.482;2023-07-13T08:35:47;20.70;46.60
16532;DHT22;66872;63.142;14.482;2023-07-13T08:38:13;20.70;46.60
16532;DHT22;66872;63.142;14.482;2023-07-13T08:40:39;20.70;46.60
16532;DHT22;66872;63.142;14.482;2023-07-13T08:43:12;20.80;46.60
16532;DHT22;66872;63.142;14.482;2023-07-13T08:46:02;20.70;46.60
16532;DHT22;66872;63.142;14.482;2023-07-13T08:51:45;20.70;46.60
16532;DHT22;66872;63.142;14.482;2023-07-13T08:54:37;20.70;46.60
16532;DHT22;66872;63.142;14.482;2023-07-13T08:57:27;20.70;46.60
16532;DHT22;66872;63.142;14.482;2023-07-13T08:59:55;20.70;46.70
16532;DHT22;66872;63.142;14.482;2023-07-13T09:02:46;20.70;46.70
16532;DHT22;66872;63.142;14.482;2023-07-13T09:10:48;20.80;46.60
16532;DHT22;66872;63.142;14.482;2023-07-13T09:16:10;20.80;46.60
16532;DHT22;66872;63.142;14.482;2023-07-13T09:18:47;20.80;46.60
16532;DHT22;66872;63.142;14.482;2023-07-13T09:21:31;20.70;46.60
16532;DHT22;66872;63.142;14.482;2023-07-13T09:24:16;20.80;46.70
16532;DHT22;66872;63.142;14.482;2023-07-13T09:26:47;20.80;46.70
16532;DHT22;66872;63.142;14.482;2023-07-13T09:29:26;20.80;46.70
16532;DHT22;66872;63.142;14.482;2023-07-13T09:31:57;20.90;46.80
16532;DHT22;66872;63.142;14.482;2023-07-13T09:34:24;21.00;46.60
16532;DHT22;66872;63.142;14.482;2023-07-13T09:36:50;21.10;46.50
16532;DHT22;66872;63.142;14.482;2023-07-13T09:39:44;21.10;46.70
16532;DHT22;66872;63.142;14.482;2023-07-13T09:42:16;21.10;48.00
16532;DHT22;66872;63.142;14.482;2023-07-13T09:47:18;21.00;49.30
16532;DHT22;66872;63.142;14.482;2023-07-13T09:49:44;21.10;49.80
16532;DHT22;66872;63.142;14.482;2023-07-13T09:52:15;21.00;50.00
16532;DHT22;66872;63.142;14.482;2023-07-13T09:54:46;21.10;50.40
16532;DHT22;66872;63.142;14.482;2023-07-13T09:57:16;21.00;50.60
16532;DHT22;66872;63.142;14.482;2023-07-13T09:59:50;21.00;50.80
16532;DHT22;66872;63.142;14.482;2023-07-13T10:02:34;21.00;50.90
16532;DHT22;66872;63.142;14.482;2023-07-13T10:05:21;21.00;51.10
16532;DHT22;66872;63.142;14.482;2023-07-13T10:07:47;21.10;52.00
16532;DHT22;66872;63.142;14.482;2023-07-13T10:10:18;21.10;51.90
16532;DHT22;66872;63.142;14.482;2023-07-13T10:12:46;21.10;52.00
16532;DHT22;66872;63.142;14.482;2023-07-13T10:15:23;21.10;52.20
16532;DHT22;66872;63.142;14.482;2023-07-13T10:17:51;21.10;52.40
16532;DHT22;66872;63.142;14.482;2023-07-13T10:20:18;21.00;52.60
16532;DHT22;66872;63.142;14.482;2023-07-13T10:23:04;21.00;53.70
16532;DHT22;66872;63.142;14.482;2023-07-13T10:25:37;21.00;53.80
16532;DHT22;66872;63.142;14.482;2023-07-13T10:30:46;20.90;53.70
16532;DHT22;66872;63.142;14.482;2023-07-13T10:33:12;20.90;54.00
16532;DHT22;66872;63.142;14.482;2023-07-13T10:35:42;20.90;54.10
16532;DHT22;66872;63.142;14.482;2023-07-13T10:38:14;20.80;54.00
16532;DHT22;66872;63.142;14.482;2023-07-13T10:41:05;20.80;54.10
16532;DHT22;66872;63.142;14.482;2023-07-13T10:43:46;20.80;54.00
16532;DHT22;66872;63.142;14.482;2023-07-13T10:46:17;20.80;54.10
16532;DHT22;66872;63.142;14.482;2023-07-13T10:48:46;20.80;54.40
16532;DHT22;66872;63.142;14.482;2023-07-13T10:51:14;20.70;54.50
16532;DHT22;66872;63.142;14.482;2023-07-13T10:53:41;20.70;54.60
16532;DHT22;66872;63.142;14.482;2023-07-13T10:56:30;20.70;55.30
16532;DHT22;66872;63.142;14.482;2023-07-13T10:59:09;20.70;55.20
16532;DHT22;66872;63.142;14.482;2023-07-13T11:01:52;20.70;55.70
16532;DHT22;66872;63.142;14.482;2023-07-13T11:04:19;20.60;55.10
16532;DHT22;66872;63.142;14.482;2023-07-13T11:06:48;20.60;55.30
16532;DHT22;66872;63.142;14.482;2023-07-13T11:12:25;20.50;55.50
16532;DHT22;66872;63.142;14.482;2023-07-13T11:23:08;20.50;56.20
16532;DHT22;66872;63.142;14.482;2023-07-13T11:25:36;20.50;56.20
16532;DHT22;66872;63.142;14.482;2023-07-13T11:33:22;20.60;56.50
16532;DHT22;66872;63.142;14.482;2023-07-13T11:38:27;20.50;57.60
16532;DHT22;66872;63.142;14.482;2023-07-13T11:40:55;20.50;58.00
16532;DHT22;66872;63.142;14.482;2023-07-13T11:43:22;20.60;58.40
16532;DHT22;66872;63.142;14.482;2023-07-13T11:45:50;20.60;59.00
16532;DHT22;66872;63.142;14.482;2023-07-13T11:48:21;20.60;58.20
16532;DHT22;66872;63.142;14.482;2023-07-13T11:51:00;20.60;57.90
16532;DHT22;66872;63.142;14.482;2023-07-13T11:53:28;20.60;57.60
16532;DHT22;66872;63.142;14.482;2023-07-13T11:55:55;20.70;57.80
16532;DHT22;66872;63.142;14.482;2023-07-13T11:58:23;20.70;57.70
16532;DHT22;66872;63.142;14.482;2023-07-13T12:00:50;20.70;57.50
16532;DHT22;66872;63.142;14.482;2023-07-13T12:03:21;20.70;57.50
16532;DHT22;66872;63.142;14.482;2023-07-13T12:05:57;20.60;57.30
16532;DHT22;66872;63.142;14.482;2023-07-13T12:08:23;20.60;57.40
16532;DHT22;66872;63.142;14.482;2023-07-13T12:10:59;20.60;57.20
16532;DHT22;66872;63.142;14.482;2023-07-13T12:13:27;20.60;56.80
16532;DHT22;66872;63.142;14.482;2023-07-13T12:15:54;20.60;56.90
16532;DHT22;66872;63.142;14.482;2023-07-13T12:18:23;20.70;57.10
16532;DHT22;66872;63.142;14.482;2023-07-13T12:20:50;20.70;56.90
16532;DHT22;66872;63.142;14.482;2023-07-13T12:23:24;20.70;56.20
16532;DHT22;66872;63.142;14.482;2023-07-13T12:25:51;20.80;56.10
16532;DHT22;66872;63.142;14.482;2023-07-13T12:28:48;20.80;55.70
16532;DHT22;66872;63.142;14.482;2023-07-13T12:31:36;20.80;55.80
16532;DHT22;66872;63.142;14.482;2023-07-13T12:34:07;20.80;55.30
16532;DHT22;66872;63.142;14.482;2023-07-13T12:36:36;20.80;54.90
16532;DHT22;66872;63.142;14.482;2023-07-13T12:41:54;20.80;54.20
16532;DHT22;66872;63.142;14.482;2023-07-13T12:44:40;20.80;53.90
16532;DHT22;66872;63.142;14.482;2023-07-13T12:47:11;20.90;53.60
16532;DHT22;66872;63.142;14.482;2023-07-13T12:49:42;20.90;53.70
16532;DHT22;66872;63.142;14.482;2023-07-13T12:52:21;20.90;53.40
16532;DHT22;66872;63.142;14.482;2023-07-13T12:54:59;20.90;53.60
16532;DHT22;66872;63.142;14.482;2023-07-13T12:57:28;20.90;53.90
16532;DHT22;66872;63.142;14.482;2023-07-13T12:59:54;20.90;53.80
16532;DHT22;66872;63.142;14.482;2023-07-13T13:02:29;20.90;53.70
16532;DHT22;66872;63.142;14.482;2023-07-13T13:04:56;20.90;53.80
16532;DHT22;66872;63.142;14.482;2023-07-13T13:07:23;20.90;53.70
16532;DHT22;66872;63.142;14.482;2023-07-13T13:09:49;20.90;53.30
16532;DHT22;66872;63.142;14.482;2023-07-13T13:12:15;20.90;53.20
16532;DHT22;66872;63.142;14.482;2023-07-13T13:14:42;20.90;53.30
16532;DHT22;66872;63.142;14.482;2023-07-13T13:17:21;21.00;53.20
16532;DHT22;66872;63.142;14.482;2023-07-13T13:19:50;21.00;52.60
16532;DHT22;66872;63.142;14.482;2023-07-13T13:22:18;21.00;53.00
16532;DHT22;66872;63.142;14.482;2023-07-13T13:24:44;21.10;52.70
16532;DHT22;66872;63.142;14.482;2023-07-13T13:27:21;21.00;52.80
16532;DHT22;66872;63.142;14.482;2023-07-13T13:29:49;21.10;52.90
16532;DHT22;66872;63.142;14.482;2023-07-13T13:32:17;21.10;52.90
16532;DHT22;66872;63.142;14.482;2023-07-13T13:34:44;21.10;53.10
16532;DHT22;66872;63.142;14.482;2023-07-13T13:37:20;21.10;53.30
16532;DHT22;66872;63.142;14.482;2023-07-13T13:39:47;21.10;53.30
16532;DHT22;66872;63.142;14.482;2023-07-13T13:42:13;21.00;53.20
16532;DHT22;66872;63.142;14.482;2023-07-13T13:44:39;21.00;53.00
16532;DHT22;66872;63.142;14.482;2023-07-13T13:47:22;21.00;53.20
16532;DHT22;66872;63.142;14.482;2023-07-13T13:49:51;21.00;53.00
16532;DHT22;66872;63.142;14.482;2023-07-13T13:52:17;21.10;52.90
16532;DHT22;66872;63.142;14.482;2023-07-13T13:54:43;21.10;52.60
16532;DHT22;66872;63.142;14.482;2023-07-13T13:57:10;21.10;53.20
16532;DHT22;66872;63.142;14.482;2023-07-13T13:59:38;21.10;52.50
16532;DHT22;66872;63.142;14.482;2023-07-13T14:02:22;21.10;52.20
16532;DHT22;66872;63.142;14.482;2023-07-13T14:04:53;21.10;52.40
16532;DHT22;66872;63.142;14.482;2023-07-13T14:07:19;21.10;52.20
16532;DHT22;66872;63.142;14.482;2023-07-13T14:09:45;21.10;52.20
16532;DHT22;66872;63.142;14.482;2023-07-13T14:12:11;21.10;52.20
16532;DHT22;66872;63.142;14.482;2023-07-13T14:14:37;21.10;52.20
16532;DHT22;66872;63.142;14.482;2023-07-13T14:17:03;21.10;52.10
16532;DHT22;66872;63.142;14.482;2023-07-13T14:19:29;21.10;52.10
16532;DHT22;66872;63.142;14.482;2023-07-13T14:21:55;21.10;52.20
16532;DHT22;66872;63.142;14.482;2023-07-13T14:24:21;21.20;52.40
16532;DHT22;66872;63.142;14.482;2023-07-13T14:26:47;21.20;52.50
16532;DHT22;66872;63.142;14.482;2023-07-13T14:29:15;21.20;52.20
16532;DHT22;66872;63.142;14.482;2023-07-13T14:31:42;21.20;52.30
16532;DHT22;66872;63.142;14.482;2023-07-13T14:34:12;21.20;52.30
16532;DHT22;66872;63.142;14.482;2023-07-13T14:36:43;21.20;52.50
16532;DHT22;66872;63.142;14.482;2023-07-13T14:39:19;21.20;52.20
16532;DHT22;66872;63.142;14.482;2023-07-13T14:41:50;21.20;52.60
16532;DHT22;66872;63.142;14.482;2023-07-13T14:44:22;21.10;52.70
16532;DHT22;66872;63.142;14.482;2023-07-13T14:46:49;21.10;52.90
16532;DHT22;66872;63.142;14.482;2023-07-13T14:49:38;21.10;53.00
16532;DHT22;66872;63.142;14.482;2023-07-13T14:52:17;21.10;52.90
16532;DHT22;66872;63.142;14.482;2023-07-13T14:54:43;21.10;52.80
16532;DHT22;66872;63.142;14.482;2023-07-13T14:57:14;21.10;52.70
16532;DHT22;66872;63.142;14.482;2023-07-13T14:59:41;21.20;52.70
16532;DHT22;66872;63.142;14.482;2023-07-13T15:02:27;21.20;52.60
16532;DHT22;66872;63.142;14.482;2023-07-13T15:04:53;21.20;52.70
16532;DHT22;66872;63.142;14.482;2023-07-13T15:07:20;21.20;52.70
16532;DHT22;66872;63.142;14.482;2023-07-13T15:09:46;21.10;52.80
16532;DHT22;66872;63.142;14.482;2023-07-13T15:12:14;21.10;52.90
16532;DHT22;66872;63.142;14.482;2023-07-13T15:14:39;21.10;53.00
16532;DHT22;66872;63.142;14.482;2023-07-13T15:17:08;21.10;53.10
16532;DHT22;66872;63.142;14.482;2023-07-13T15:19:43;21.10;53.10
16532;DHT22;66872;63.142;14.482;2023-07-13T15:22:10;21.10;53.10
16532;DHT22;66872;63.142;14.482;2023-07-13T15:24:36;21.10;53.20
16532;DHT22;66872;63.142;14.482;2023-07-13T15:27:04;21.10;53.30
16532;DHT22;66872;63.142;14.482;2023-07-13T15:29:29;21.10;53.30
16532;DHT22;66872;63.142;14.482;2023-07-13T15:31:55;21.00;53.50
16532;DHT22;66872;63.142;14.482;2023-07-13T15:34:24;21.00;53.60
16532;DHT22;66872;63.142;14.482;2023-07-13T15:36:51;21.00;53.70
16532;DHT22;66872;63.142;14.482;2023-07-13T15:39:17;20.90;53.60
16532;DHT22;66872;63.142;14.482;2023-07-13T15:41:44;20.90;53.60
16532;DHT22;66872;63.142;14.482;2023-07-13T15:44:31;20.90;54.10
16532;DHT22;66872;63.142;14.482;2023-07-13T15:46:57;20.90;53.40
16532;DHT22;66872;63.142;14.482;2023-07-13T15:49:25;20.90;53.40
16532;DHT22;66872;63.142;14.482;2023-07-13T15:51:51;20.80;53.40
16532;DHT22;66872;63.142;14.482;2023-07-13T15:54:18;20.90;53.80
16532;DHT22;66872;63.142;14.482;2023-07-13T15:56:49;20.80;53.80
16532;DHT22;66872;63.142;14.482;2023-07-13T15:59:16;20.80;53.80
16532;DHT22;66872;63.142;14.482;2023-07-13T16:01:41;20.80;53.70